Time;durP1;ratioP1;P1;durP2;ratioP2;P2;SDS_P1;SDS_P2;PMS_P1;PMS_P2;Temp;Humidity;BMP_temperature;BMP_pressure;BME280_temperature;BME280_humidity;BME280_pressure;Samples;Min_cycle;Max_cycle;Signal;HPM_P1;HPM_P2
2021/12/04 00:00:48;;;;;;;8.35;5.47;;;;;;;4.47;100.00;99902.69;5018447;28;20053;-59
2021/12/04 00:03:14;;;;;;;11.05;6.97;;;;;;;4.47;100.00;99900.09;5037639;28;20104;-60
2021/12/04 00:05:45;;;;;;;10.63;7.18;;;;;;;4.45;100.00;99888.91;5021753;28;20030;-59
2021/12/04 00:08:10;;;;;;;8.55;5.68;;;;;;;4.44;100.00;99894.06;5017824;28;20099;-60
2021/12/04 00:10:36;;;;;;;9.15;6.47;;;;;;;4.44;100.00;99900.09;5017173;28;20408;-59
2021/12/04 00:13:01;;;;;;;13.70;6.32;;;;;;;4.44;100.00;99888.91;5017723;28;20022;-58
2021/12/04 00:15:27;;;;;;;10.23;5.78;;;;;;;4.43;100.00;99880.25;5029284;28;20089;-58
2021/12/04 00:17:52;;;;;;;8.02;6.57;;;;;;;4.44;100.00;99887.16;5023134;28;20060;-57
2021/12/04 00:20:18;;;;;;;7.55;6.05;;;;;;;4.43;100.00;99885.44;5027426;28;20018;-59
2021/12/04 00:22:43;;;;;;;11.30;7.43;;;;;;;4.45;100.00;99878.56;5027783;28;20033;-58
2021/12/04 00:25:09;;;;;;;13.70;6.35;;;;;;;4.45;100.00;99882.88;5007401;28;20358;-59
2021/12/04 00:27:36;;;;;;;10.13;6.53;;;;;;;4.45;100.00;99863.03;5031152;28;20464;-58
2021/12/04 00:30:02;;;;;;;7.50;5.85;;;;;;;4.49;100.00;99869.94;5030934;28;20034;-59
2021/12/04 00:32:33;;;;;;;13.50;7.18;;;;;;;4.48;100.00;99863.03;5012334;28;20038;-57
2021/12/04 00:35:19;;;;;;;7.97;6.65;;;;;;;4.47;100.00;99861.31;5030810;28;20013;-58
2021/12/04 00:38:07;;;;;;;8.52;6.57;;;;;;;4.52;100.00;99859.59;5017182;28;20104;-58
2021/12/04 00:51:10;;;;;;;8.18;6.00;;;;;;;4.56;100.00;99860.44;5005093;28;20045;-58
2021/12/04 00:53:35;;;;;;;8.75;5.70;;;;;;;4.46;100.00;99854.41;5016708;28;20054;-58
2021/12/04 00:56:04;;;;;;;7.93;6.90;;;;;;;4.53;100.00;99861.31;5003208;28;20128;-58
2021/12/04 00:58:29;;;;;;;8.70;6.28;;;;;;;4.58;100.00;99856.13;5016690;28;20025;-58
2021/12/04 01:00:55;;;;;;;7.35;5.40;;;;;;;4.59;100.00;99866.47;5031402;28;20099;-58
2021/12/04 01:03:20;;;;;;;6.88;5.00;;;;;;;4.57;100.00;99854.44;5016713;28;20064;-58
2021/12/04 01:05:45;;;;;;;11.90;6.00;;;;;;;4.56;100.00;99844.94;5029233;28;20029;-58
2021/12/04 01:08:11;;;;;;;9.82;7.13;;;;;;;4.56;100.00;99856.13;5024726;28;20097;-57
2021/12/04 01:10:36;;;;;;;13.45;7.18;;;;;;;4.56;100.00;99860.44;5021735;28;20026;-57
2021/12/04 01:13:06;;;;;;;10.40;6.18;;;;;;;4.60;100.00;99851.81;5016605;28;20469;-58
2021/12/04 01:15:31;;;;;;;11.13;5.83;;;;;;;4.53;100.00;99845.81;5030146;28;20032;-58
2021/12/04 01:17:57;;;;;;;9.90;5.78;;;;;;;4.53;100.00;99835.47;5022467;28;20272;-56
2021/12/04 01:20:22;;;;;;;12.25;6.03;;;;;;;4.57;100.00;99851.84;5026054;28;20080;-57
2021/12/04 01:22:48;;;;;;;18.17;7.00;;;;;;;4.56;100.00;99840.63;5014702;28;20037;-56
2021/12/04 01:25:13;;;;;;;8.63;7.07;;;;;;;4.56;100.00;99834.59;5024643;28;20083;-54
2021/12/04 01:27:39;;;;;;;13.48;6.78;;;;;;;4.57;100.00;99842.34;5021859;28;20057;-56
2021/12/04 01:30:06;;;;;;;19.15;8.18;;;;;;;4.59;100.00;99835.44;5029595;28;20483;-58
2021/12/04 01:32:32;;;;;;;12.30;6.53;;;;;;;4.58;100.00;99833.72;5012941;28;20064;-56
2021/12/04 01:34:57;;;;;;;10.25;6.80;;;;;;;4.58;100.00;99833.72;5029831;28;20097;-57
2021/12/04 01:37:23;;;;;;;8.75;5.78;;;;;;;4.61;100.00;99828.56;5016211;28;20029;-55
2021/12/04 01:39:48;;;;;;;7.95;6.07;;;;;;;4.64;100.00;99827.69;5015778;28;20026;-56
2021/12/04 01:42:18;;;;;;;10.25;7.25;;;;;;;4.60;100.00;99826.81;5011513;28;20026;-58
2021/12/04 01:44:43;;;;;;;10.07;6.97;;;;;;;4.58;100.00;99823.34;5015668;28;20025;-56
2021/12/04 01:47:14;;;;;;;11.50;7.45;;;;;;;4.59;100.00;99819.91;5022887;28;20025;-57
2021/12/04 01:49:39;;;;;;;12.80;6.57;;;;;;;4.60;100.00;99815.59;5035398;28;20036;-57
2021/12/04 01:52:07;;;;;;;12.07;7.07;;;;;;;4.62;100.00;99809.56;5016490;28;20058;-58
2021/12/04 01:54:32;;;;;;;12.63;7.72;;;;;;;4.60;100.00;99811.31;5027878;28;20028;-57
2021/12/04 01:56:58;;;;;;;11.35;6.43;;;;;;;4.61;100.00;99792.34;5015689;28;20018;-57
2021/12/04 01:59:23;;;;;;;11.05;7.60;;;;;;;4.62;100.00;99783.69;5021023;28;20037;-56
2021/12/04 02:01:48;;;;;;;14.50;7.05;;;;;;;4.62;100.00;99782.81;5026446;28;20533;-57
2021/12/04 02:04:13;;;;;;;11.18;7.45;;;;;;;4.67;100.00;99784.56;5015195;28;20459;-58
2021/12/04 02:06:39;;;;;;;10.10;7.30;;;;;;;4.68;100.00;99794.03;5015397;28;20064;-57
2021/12/04 02:09:04;;;;;;;11.20;6.35;;;;;;;4.73;100.00;99792.31;5029097;28;20033;-56
2021/12/04 02:11:30;;;;;;;14.02;6.80;;;;;;;4.68;100.00;99783.69;5009580;28;20076;-57
2021/12/04 02:13:55;;;;;;;14.30;7.97;;;;;;;4.67;100.00;99781.97;5008910;28;20033;-58
2021/12/04 02:16:22;;;;;;;12.73;8.25;;;;;;;4.69;100.00;99784.56;5015022;28;20451;-56
2021/12/04 02:18:48;;;;;;;11.82;8.25;;;;;;;4.59;100.00;99768.19;5026769;28;20457;-58
2021/12/04 02:21:14;;;;;;;12.23;7.85;;;;;;;4.70;100.00;99779.38;5017104;28;20025;-57
2021/12/04 02:23:40;;;;;;;12.07;7.63;;;;;;;4.71;100.00;99777.66;5024695;28;20032;-58
2021/12/04 02:26:06;;;;;;;11.55;6.75;;;;;;;4.71;100.00;99773.34;5020604;28;20033;-58
2021/12/04 02:28:32;;;;;;;9.30;7.20;;;;;;;4.70;100.00;99781.94;5034882;28;20380;-58
2021/12/04 02:30:57;;;;;;;15.98;7.90;;;;;;;4.72;100.00;99782.81;5033526;28;20477;-58
2021/12/04 02:33:23;;;;;;;10.25;6.78;;;;;;;4.71;100.00;99788.00;5033623;28;20108;-58
2021/12/04 02:35:52;;;;;;;13.73;8.02;;;;;;;4.72;100.00;99800.06;5023280;28;20022;-58
2021/12/04 02:38:23;;;;;;;13.93;8.30;;;;;;;4.82;100.00;99800.94;5018723;28;20060;-58
2021/12/04 02:40:49;;;;;;;;;;;;;;;4.82;100.00;99799.19;5024453;28;20049;-57
2021/12/04 02:43:14;;;;;;;14.07;7.03;;;;;;;4.79;100.00;99795.75;5014283;28;19909;-58
2021/12/04 02:45:42;;;;;;;11.35;7.43;;;;;;;4.82;100.00;99785.41;5023371;28;20029;-58
2021/12/04 02:48:07;;;;;;;10.25;6.85;;;;;;;4.80;100.00;99781.94;5033230;28;20113;-58
2021/12/04 02:50:32;;;;;;;12.13;7.57;;;;;;;4.80;100.00;99771.59;5017459;28;20060;-58
2021/12/04 02:52:58;;;;;;;12.45;6.82;;;;;;;4.79;100.00;99769.88;5018710;28;20080;-58
2021/12/04 02:55:23;;;;;;;12.18;7.22;;;;;;;4.74;100.00;99770.72;5020330;28;20418;-57
2021/12/04 02:57:49;;;;;;;12.98;7.32;;;;;;;4.81;100.00;99765.56;5027495;28;20056;-58
2021/12/04 03:00:19;;;;;;;11.20;7.43;;;;;;;4.85;100.00;99772.44;5027300;28;20010;-58
2021/12/04 03:02:47;;;;;;;10.15;7.75;;;;;;;4.80;100.00;99763.84;5010671;28;20121;-57
2021/12/04 03:05:13;;;;;;;15.05;7.20;;;;;;;4.81;100.00;99760.38;5014392;28;20025;-60
2021/12/04 03:07:39;;;;;;;10.25;8.25;;;;;;;4.82;100.00;99762.13;5028137;28;20033;-59
2021/12/04 03:10:07;;;;;;;11.23;8.77;;;;;;;4.86;100.00;99766.38;5023935;28;20377;-59
2021/12/04 03:12:33;;;;;;;14.88;8.27;;;;;;;4.85;100.00;99764.69;5019603;28;20029;-59
2021/12/04 03:14:59;;;;;;;14.63;7.13;;;;;;;4.87;100.00;99769.00;5034058;28;20361;-59
2021/12/04 03:17:25;;;;;;;21.90;9.75;;;;;;;4.90;100.00;99762.94;5033893;28;20021;-59
2021/12/04 03:19:52;;;;;;;12.95;8.27;;;;;;;4.84;100.00;99748.28;5020282;28;20100;-59
2021/12/04 03:22:19;;;;;;;17.88;8.05;;;;;;;4.87;100.00;99763.81;5013855;28;20034;-60
2021/12/04 03:24:45;;;;;;;19.70;7.60;;;;;;;4.87;100.00;99756.03;5016867;28;20083;-57
2021/12/04 03:27:13;;;;;;;12.35;7.78;;;;;;;4.90;100.00;99752.56;5022153;28;20108;-59
2021/12/04 03:29:42;;;;;;;14.52;7.60;;;;;;;4.91;100.00;99746.53;5030049;28;20460;-57
2021/12/04 03:43:06;;;;;;;20.23;9.35;;;;;;;4.97;100.00;99723.25;5018592;28;20033;-60
2021/12/04 03:45:34;;;;;;;14.23;8.55;;;;;;;4.90;100.00;99701.69;5013723;28;20025;-60
2021/12/04 03:48:13;;;;;;;19.65;9.65;;;;;;;4.99;100.00;99711.13;5027498;28;20389;-60
2021/12/04 03:50:39;;;;;;;10.45;7.40;;;;;;;5.00;100.00;99711.16;5013795;28;20622;-59
2021/12/04 03:53:05;;;;;;;14.52;9.32;;;;;;;4.99;100.00;99700.78;5006044;28;20045;-59
2021/12/04 03:55:30;;;;;;;13.68;9.45;;;;;;;4.94;100.00;99692.16;5013592;28;20077;-59
2021/12/04 03:57:56;;;;;;;15.52;9.63;;;;;;;5.00;100.00;99702.50;5013722;28;20053;-56
2021/12/04 04:00:23;;;;;;;13.60;7.97;;;;;;;5.01;100.00;99699.06;5013898;28;20358;-57
2021/12/04 04:02:48;;;;;;;21.40;10.18;;;;;;;4.99;100.00;99700.78;5009281;28;20079;-57
2021/12/04 04:05:14;;;;;;;17.70;9.35;;;;;;;4.94;100.00;99698.22;5013787;28;20109;-57
2021/12/04 04:07:39;;;;;;;10.13;8.30;;;;;;;4.94;100.00;99694.75;5013659;28;20370;-57
2021/12/04 04:10:06;;;;;;;12.73;7.63;;;;;;;4.95;100.00;99688.72;5013696;28;20057;-57
2021/12/04 04:12:32;;;;;;;15.88;8.57;;;;;;;4.87;100.00;99690.47;5003142;28;20108;-57
2021/12/04 04:14:58;;;;;;;20.63;8.07;;;;;;;4.83;100.00;99691.34;4999822;28;20018;-57
2021/12/04 04:17:24;;;;;;;11.50;8.20;;;;;;;4.84;100.00;99703.44;5013899;28;20410;-57
2021/12/04 04:19:49;;;;;;;19.20;8.45;;;;;;;4.81;100.00;99701.72;5016825;28;20052;-57
2021/12/04 04:22:15;;;;;;;26.55;9.40;;;;;;;4.83;100.00;99704.28;5023837;28;20033;-58
2021/12/04 04:24:40;;;;;;;17.00;9.35;;;;;;;4.80;100.00;99704.31;5027164;28;20551;-57
2021/12/04 04:27:06;;;;;;;18.73;8.80;;;;;;;4.83;100.00;99704.28;5020880;28;20087;-58
2021/12/04 04:29:31;;;;;;;19.50;8.43;;;;;;;4.84;100.00;99695.66;5020115;28;20098;-57
2021/12/04 04:31:57;;;;;;;16.67;9.70;;;;;;;4.84;100.00;99688.78;5007881;28;20068;-56
2021/12/04 04:34:30;;;;;;;13.27;8.40;;;;;;;4.86;100.00;99691.34;5005001;28;20025;-57
2021/12/04 04:37:14;;;;;;;14.18;7.25;;;;;;;4.89;100.00;99681.00;5013422;28;20075;-56
2021/12/04 04:59:01;;;;;;;;;;;;;;;;;;;;;
2021/12/04 05:12:14;;;;;;;24.10;10.43;;;;;;;5.09;100.00;99686.94;5020382;28;20120;-55
2021/12/04 05:14:42;;;;;;;16.42;9.93;;;;;;;5.13;100.00;99693.84;5002913;28;20017;-56
2021/12/04 05:17:11;;;;;;;19.55;10.60;;;;;;;5.07;100.00;99688.66;5028567;28;20431;-55
2021/12/04 05:22:07;;;;;;;26.85;11.52;;;;;;;5.10;100.00;99683.47;5024716;28;20116;-56
2021/12/04 05:24:32;;;;;;;21.80;11.20;;;;;;;5.14;100.00;99678.28;5033161;28;20017;-57
2021/12/04 05:26:58;;;;;;;19.38;11.68;;;;;;;5.12;100.00;99674.00;5026993;28;20068;-57
2021/12/04 05:29:23;;;;;;;20.85;9.75;;;;;;;5.17;100.00;99675.69;5030010;28;20060;-56
2021/12/04 05:31:49;;;;;;;25.05;11.23;;;;;;;5.15;100.00;99676.56;5015832;28;20461;-55
2021/12/04 05:34:15;;;;;;;23.10;11.93;;;;;;;5.16;100.00;99673.09;5020427;28;20076;-56
2021/12/04 05:36:40;;;;;;;21.17;12.95;;;;;;;5.14;100.00;99664.47;5029859;28;20492;-57
2021/12/04 05:39:06;;;;;;;22.08;11.73;;;;;;;5.11;100.00;99654.13;5016009;28;20461;-57
2021/12/04 05:41:34;;;;;;;19.70;10.75;;;;;;;5.14;100.00;99654.09;5015837;28;20496;-59
2021/12/04 05:44:04;;;;;;;20.45;12.45;;;;;;;5.16;100.00;99652.38;5014759;28;20044;-57
2021/12/04 05:46:36;;;;;;;21.58;12.40;;;;;;;5.18;100.00;99645.47;5021449;28;20026;-58
2021/12/04 05:49:27;;;;;;;21.30;10.32;;;;;;;5.21;100.00;99655.81;5030775;28;20013;-57
2021/12/04 05:55:07;;;;;;;21.60;12.32;;;;;;;5.19;100.00;99642.00;4983725;28;20042;-59
2021/12/04 05:57:31;;;;;;;21.20;10.73;;;;;;;5.19;100.00;99645.47;5034014;28;20038;-57
2021/12/04 05:59:56;;;;;;;17.25;10.05;;;;;;;5.17;100.00;99643.75;5024892;28;20160;-59
2021/12/04 06:02:22;;;;;;;19.17;9.80;;;;;;;5.17;100.00;99636.00;5015092;28;20021;-53
2021/12/04 06:04:47;;;;;;;22.08;10.88;;;;;;;5.18;100.00;99641.13;5015580;28;20358;-60
2021/12/04 06:07:13;;;;;;;19.83;12.75;;;;;;;5.13;100.00;99644.66;5015169;28;20025;-59
2021/12/04 06:09:38;;;;;;;21.58;10.38;;;;;;;5.11;100.00;99633.41;5016258;28;20507;-59
2021/12/04 06:12:07;;;;;;;27.55;9.95;;;;;;;5.06;100.00;99637.75;4996870;28;20474;-59
2021/12/04 06:14:33;;;;;;;24.10;10.63;;;;;;;5.07;100.00;99636.91;5032986;28;20038;-58
2021/12/04 06:16:59;;;;;;;16.23;10.13;;;;;;;5.05;100.00;99623.97;5035001;28;20107;-59
2021/12/04 06:22:37;;;;;;;21.05;9.63;;;;;;;5.12;100.00;99641.19;5031770;28;20024;-59
2021/12/04 06:24:53;;;;;;;21.33;8.93;;;;;;;5.05;100.00;99655.03;5001775;28;20037;-58
2021/12/04 06:27:19;;;;;;;18.83;10.65;;;;;;;5.07;100.00;99652.44;5015157;28;20472;-58
2021/12/04 06:29:44;;;;;;;27.02;9.55;;;;;;;5.14;100.00;99648.94;5015225;28;20017;-58
2021/12/04 06:32:09;;;;;;;18.02;10.23;;;;;;;5.14;100.00;99648.94;5001019;28;20173;-58
2021/12/04 06:34:34;;;;;;;34.05;11.07;;;;;;;5.10;100.00;99647.22;5012574;28;20473;-58
2021/12/04 06:37:00;;;;;;;18.67;11.23;;;;;;;5.12;100.00;99655.88;5026954;28;20037;-57
2021/12/04 06:39:25;;;;;;;18.17;10.27;;;;;;;5.17;100.00;99654.13;5013691;28;20029;-57
2021/12/04 06:41:51;;;;;;;29.75;10.85;;;;;;;5.15;100.00;99650.66;5013410;28;20194;-58
2021/12/04 06:44:16;;;;;;;16.42;10.68;;;;;;;5.20;100.00;99648.91;5014918;28;20025;-58
2021/12/04 06:46:42;;;;;;;28.45;10.02;;;;;;;5.09;100.00;99640.34;5028390;28;20030;-58
2021/12/04 06:49:13;;;;;;;26.30;12.45;;;;;;;5.08;100.00;99643.81;5018606;28;20439;-58
2021/12/04 06:51:42;;;;;;;26.35;10.38;;;;;;;5.06;100.00;99640.34;5019428;28;20040;-56
2021/12/04 06:54:23;;;;;;;16.55;10.52;;;;;;;5.09;100.00;99640.34;5014365;28;20041;-58
2021/12/04 06:56:48;;;;;;;26.48;11.75;;;;;;;5.06;100.00;99638.63;5027623;28;20432;-58
2021/12/04 06:59:22;;;;;;;16.63;9.50;;;;;;;5.08;100.00;99643.81;5029337;28;20018;-58
2021/12/04 07:01:51;;;;;;;16.95;11.40;;;;;;;5.02;100.00;99649.00;5006419;28;20373;-58
2021/12/04 07:04:18;;;;;;;13.02;10.32;;;;;;;5.03;100.00;99648.13;5030054;28;20464;-58
2021/12/04 07:06:46;;;;;;;27.05;8.60;;;;;;;5.00;100.00;99645.56;5034094;28;20025;-58
2021/12/04 07:09:12;;;;;;;16.40;9.32;;;;;;;4.98;100.00;99636.94;5020109;28;20021;-58
2021/12/04 07:11:37;;;;;;;28.58;10.68;;;;;;;5.06;100.00;99635.16;5013202;28;20445;-58
2021/12/04 07:14:03;;;;;;;17.33;9.75;;;;;;;5.14;100.00;99638.56;5009028;28;20036;-58
2021/12/04 07:16:29;;;;;;;39.65;12.02;;;;;;;5.20;100.00;99638.56;5021177;28;20090;-59
2021/12/04 07:18:54;;;;;;;23.08;11.75;;;;;;;5.22;100.00;99629.03;5021422;28;20033;-58
2021/12/04 07:21:20;;;;;;;29.70;11.52;;;;;;;5.22;100.00;99621.25;5028716;28;20061;-57
2021/12/04 07:23:46;;;;;;;16.67;9.27;;;;;;;5.31;100.00;99628.13;5024972;28;20028;-58
2021/12/04 07:26:11;;;;;;;22.33;9.43;;;;;;;5.33;100.00;99610.84;5019664;28;20071;-59
2021/12/04 07:28:37;;;;;;;21.67;9.27;;;;;;;5.34;100.00;99610.81;5025356;28;20018;-58
2021/12/04 07:31:04;;;;;;;12.10;7.93;;;;;;;5.34;100.00;99594.44;5027902;28;20437;-58
2021/12/04 07:33:29;;;;;;;18.85;7.97;;;;;;;5.32;100.00;99596.19;5027104;28;20030;-58
2021/12/04 07:35:57;;;;;;;12.45;8.35;;;;;;;5.38;100.00;99586.63;5014023;28;20071;-57
2021/12/04 07:38:23;;;;;;;14.52;8.35;;;;;;;5.41;100.00;99585.75;5032835;28;20440;-58
2021/12/04 07:40:49;;;;;;;17.08;6.50;;;;;;;5.37;100.00;99584.94;5022643;28;20033;-58
2021/12/04 07:43:14;;;;;;;10.80;6.00;;;;;;;5.32;100.00;99568.56;5027232;28;20028;-58
2021/12/04 07:45:40;;;;;;;8.32;5.72;;;;;;;5.32;100.00;99568.56;5023077;28;20057;-55
2021/12/04 07:48:06;;;;;;;12.05;6.88;;;;;;;5.35;100.00;99565.94;5017627;28;20022;-54
2021/12/04 07:50:32;;;;;;;10.70;6.28;;;;;;;5.32;100.00;99571.16;5011306;28;20022;-56
2021/12/04 07:52:58;;;;;;;15.32;6.47;;;;;;;5.39;100.00;99572.81;4997775;28;20101;-56
2021/12/04 07:55:25;;;;;;;19.50;6.75;;;;;;;5.35;100.00;99560.75;5010409;28;20084;-56
2021/12/04 07:57:51;;;;;;;11.55;5.95;;;;;;;5.42;100.00;99562.41;5033676;28;20108;-57
2021/12/04 08:00:18;;;;;;;10.32;6.38;;;;;;;5.44;100.00;99549.47;5020266;28;20113;-58
2021/12/04 08:02:43;;;;;;;16.83;7.38;;;;;;;5.42;100.00;99546.88;5005427;28;20036;-57
2021/12/04 08:05:10;;;;;;;11.70;8.10;;;;;;;5.35;100.00;99540.03;5025123;28;20030;-57
2021/12/04 08:07:36;;;;;;;10.68;6.95;;;;;;;5.24;100.00;99523.72;5015908;28;20381;-56
2021/12/04 08:10:02;;;;;;;25.52;8.30;;;;;;;5.29;100.00;99534.91;5013709;28;20022;-57
2021/12/04 08:12:27;;;;;;;16.75;7.53;;;;;;;5.32;100.00;99534.03;5000956;28;20034;-58
2021/12/04 08:14:54;;;;;;;14.85;7.43;;;;;;;5.38;100.00;99549.50;5026792;28;20104;-55
2021/12/04 08:17:20;;;;;;;14.27;8.05;;;;;;;5.42;100.00;99557.25;5031313;28;20543;-56
2021/12/04 08:19:46;;;;;;;15.35;7.82;;;;;;;5.40;100.00;99563.31;5031161;28;20029;-58
2021/12/04 08:22:11;;;;;;;30.10;8.38;;;;;;;5.35;100.00;99571.13;5017125;28;20053;-55
2021/12/04 08:24:36;;;;;;;13.05;8.77;;;;;;;5.34;100.00;99563.34;5034673;28;20072;-56
2021/12/04 08:27:03;;;;;;;9.52;6.15;;;;;;;5.35;100.00;99559.91;5027173;28;20026;-58
2021/12/04 08:29:28;;;;;;;17.95;7.93;;;;;;;5.38;100.00;99559.88;5031017;28;20033;-58
2021/12/04 08:31:54;;;;;;;21.17;8.73;;;;;;;5.40;100.00;99568.50;5009605;28;20384;-58
2021/12/04 08:34:19;;;;;;;18.48;9.10;;;;;;;5.40;100.00;99569.34;5024832;28;20024;-55
2021/12/04 08:36:46;;;;;;;11.50;7.90;;;;;;;5.39;100.00;99561.59;5017349;28;20032;-58
2021/12/04 08:39:11;;;;;;;20.52;8.20;;;;;;;5.40;100.00;99571.94;5017277;28;20100;-58
2021/12/04 08:41:37;;;;;;;15.18;8.45;;;;;;;5.41;100.00;99560.72;5013280;28;20406;-58
2021/12/04 08:44:03;;;;;;;17.40;7.63;;;;;;;5.42;100.00;99567.59;5007017;28;20064;-58
2021/12/04 08:46:29;;;;;;;28.55;9.60;;;;;;;5.41;100.00;99563.31;5018500;28;20429;-58
2021/12/04 08:48:55;;;;;;;16.65;8.63;;;;;;;5.41;100.00;99555.53;5029005;28;20079;-58
2021/12/04 08:51:22;;;;;;;12.57;8.45;;;;;;;5.36;100.00;99552.13;5025530;28;20032;-58
2021/12/04 08:53:49;;;;;;;12.18;8.25;;;;;;;5.28;100.00;99548.72;5030232;28;20077;-58
2021/12/04 08:56:15;;;;;;;15.43;8.63;;;;;;;5.19;100.00;99544.47;5025093;28;20025;-58
2021/12/04 08:58:42;;;;;;;16.92;10.07;;;;;;;5.14;100.00;99545.38;5036182;28;20032;-58
2021/12/04 09:01:12;;;;;;;17.23;9.75;;;;;;;5.24;100.00;99546.19;5016732;28;20022;-58
2021/12/04 09:03:49;;;;;;;18.40;10.20;;;;;;;5.33;100.00;99546.97;5016416;28;20064;-58
2021/12/04 09:06:18;;;;;;;21.13;9.60;;;;;;;5.39;100.00;99541.72;5003508;28;20484;-58
2021/12/04 09:08:43;;;;;;;21.08;9.43;;;;;;;5.51;100.00;99528.69;5016623;28;20415;-58
2021/12/04 09:11:18;;;;;;;14.45;9.15;;;;;;;5.55;100.00;99517.41;5034046;28;20459;-57
2021/12/04 09:13:46;;;;;;;37.83;11.20;;;;;;;5.50;100.00;99531.28;5028370;28;20021;-58
2021/12/04 09:16:12;;;;;;;39.88;10.95;;;;;;;5.48;100.00;99526.13;5017669;28;20026;-58
2021/12/04 09:18:37;;;;;;;18.95;10.80;;;;;;;5.61;100.00;99537.25;5026799;28;20048;-58
2021/12/04 09:21:05;;;;;;;22.40;10.55;;;;;;;5.62;100.00;99533.75;5022085;28;20101;-59
2021/12/04 09:23:34;;;;;;;23.38;10.18;;;;;;;5.68;100.00;99513.84;5009305;28;20077;-57
2021/12/04 09:26:03;;;;;;;17.40;9.63;;;;;;;5.77;100.00;99522.41;5030628;28;20396;-58
2021/12/04 09:28:50;;;;;;;27.20;10.88;;;;;;;5.80;100.00;99512.00;5035761;28;20095;-59
2021/12/04 10:01:09;;;;;;;19.38;9.18;;;;;;;5.92;100.00;99485.97;5029709;28;20041;-58
2021/12/04 10:14:52;;;;;;;19.08;10.68;;;;;;;5.99;100.00;99492.81;5026801;28;20504;-58
2021/12/04 10:17:45;;;;;;;;;;;;;;;;;;;;;
2021/12/04 10:20:21;;;;;;;17.48;9.57;;;;;;;6.07;100.00;99497.03;5027806;28;20038;-58
2021/12/04 10:33:57;;;;;;;15.85;8.95;;;;;;;6.10;100.00;99486.63;5008126;28;20040;-58
2021/12/04 10:36:30;;;;;;;23.85;9.68;;;;;;;6.06;100.00;99489.25;5028563;28;20029;-57
2021/12/04 10:38:56;;;;;;;23.00;10.15;;;;;;;6.05;100.00;99477.19;5014878;28;20021;-58
2021/12/04 10:41:32;;;;;;;15.35;9.15;;;;;;;6.00;100.00;99469.47;5013130;28;20167;-58
2021/12/04 10:44:10;;;;;;;15.75;10.10;;;;;;;6.12;100.00;99468.47;5004148;28;20117;-58
2021/12/04 10:46:35;;;;;;;13.00;7.93;;;;;;;6.17;100.00;99466.66;5018981;28;20029;-58
2021/12/04 10:49:13;;;;;;;13.43;9.40;;;;;;;6.21;100.00;99457.13;5007945;28;20092;-58
2021/12/04 10:51:46;;;;;;;16.20;9.20;;;;;;;6.23;100.00;99451.03;5013826;22;20095;-58
2021/12/04 10:54:26;;;;;;;13.85;8.65;;;;;;;6.30;100.00;99437.09;4993699;28;20057;-58
2021/12/04 10:57:14;;;;;;;13.35;7.20;;;;;;;6.34;100.00;99428.38;4995051;28;20026;-57
2021/12/04 11:02:43;;;;;;;11.57;6.60;;;;;;;6.45;100.00;99425.66;4981179;28;20034;-58
2021/12/04 11:05:45;;;;;;;17.58;8.65;;;;;;;6.41;100.00;99430.00;4994770;28;20109;-58
2021/12/04 11:22:25;;;;;;;12.82;7.13;;;;;;;6.32;100.00;99406.81;4994614;28;20041;-57
2021/12/04 11:28:09;;;;;;;10.55;6.72;;;;;;;6.23;100.00;99414.72;4994739;28;20482;-58
2021/12/04 11:44:13;;;;;;;12.43;7.53;;;;;;;5.78;100.00;99435.97;4994445;28;20064;-56
2021/12/04 11:46:45;;;;;;;9.60;6.25;;;;;;;5.83;100.00;99423.84;4994135;28;20026;-58
2021/12/04 11:49:21;;;;;;;7.63;5.88;;;;;;;5.72;100.00;99425.69;4994515;28;20373;-59
2021/12/04 11:52:11;;;;;;;8.57;5.15;;;;;;;5.63;100.00;99419.75;5000663;28;20038;-58
2021/12/04 11:54:49;;;;;;;13.15;5.72;;;;;;;5.62;100.00;99425.78;4996326;28;20018;-57
2021/12/04 11:57:26;;;;;;;9.45;5.30;;;;;;;5.53;100.00;99419.88;5000637;28;20112;-57
2021/12/04 11:59:52;;;;;;;5.88;3.90;;;;;;;5.50;100.00;99414.69;5000851;28;20061;-59
2021/12/04 12:02:21;;;;;;;5.95;4.85;;;;;;;5.48;100.00;99412.13;5000647;28;20050;-58
2021/12/04 12:04:52;;;;;;;7.50;4.78;;;;;;;5.42;100.00;99409.59;5000362;28;20026;-57
2021/12/04 12:07:21;;;;;;;8.40;5.07;;;;;;;5.36;100.00;99412.25;5000652;28;20037;-58
2021/12/04 12:09:49;;;;;;;4.45;3.83;;;;;;;5.36;100.00;99408.81;5000685;28;20022;-58
2021/12/04 12:12:16;;;;;;;8.73;5.10;;;;;;;5.40;100.00;99401.00;5000735;28;20377;-59
2021/12/04 12:14:51;;;;;;;9.02;4.07;;;;;;;5.41;100.00;99405.31;4996002;28;20488;-56
2021/12/04 12:17:32;;;;;;;6.78;5.38;;;;;;;5.40;100.00;99401.00;5000745;28;20048;-57
2021/12/04 12:19:58;;;;;;;8.07;4.38;;;;;;;5.42;100.00;99398.38;4988387;28;20572;-57
2021/12/04 12:22:48;;;;;;;8.38;4.72;;;;;;;5.38;100.00;99389.78;5000525;28;20018;-59
2021/12/04 12:25:24;;;;;;;9.40;5.53;;;;;;;5.35;100.00;99397.59;5000016;28;20027;-58
2021/12/04 12:31:42;;;;;;;8.65;5.00;;;;;;;5.38;100.00;99394.97;4984161;28;20026;-59
2021/12/04 12:33:34;;;;;;;;;;;;;;;;;;;;;
2021/12/04 12:36:10;;;;;;;6.55;4.25;;;;;;;5.35;100.00;99395.00;5000770;28;20018;-59
2021/12/04 12:38:45;;;;;;;7.60;4.70;;;;;;;5.39;100.00;99401.88;4987708;28;20109;-58
2021/12/04 12:41:17;;;;;;;5.10;4.13;;;;;;;5.37;100.00;99397.59;5000233;28;20025;-58
2021/12/04 12:43:52;;;;;;;6.75;4.13;;;;;;;5.35;100.00;99410.53;5000074;28;20147;-58
2021/12/04 12:46:18;;;;;;;5.90;3.72;;;;;;;5.40;100.00;99413.09;4999915;28;20030;-58
2021/12/04 12:48:50;;;;;;;7.18;4.03;;;;;;;5.38;100.00;99409.63;5000126;28;20030;-57
2021/12/04 12:51:23;;;;;;;7.07;3.35;;;;;;;5.39;100.00;99401.00;5000279;28;20500;-58
2021/12/04 12:53:49;;;;;;;5.15;2.90;;;;;;;5.40;100.00;99407.91;4999520;28;20121;-57
2021/12/04 12:56:16;;;;;;;5.35;2.33;;;;;;;5.37;100.00;99393.28;5000306;28;20068;-58
2021/12/04 12:58:53;;;;;;;3.80;2.03;;;;;;;5.35;100.00;99405.34;4999866;28;20358;-57
2021/12/04 13:12:49;;;;;;;0.45;0.45;;;;;;;5.32;100.00;99395.03;4996917;28;20037;-58
2021/12/04 13:15:32;;;;;;;4.00;1.25;;;;;;;5.36;100.00;99395.88;4996623;28;20036;-58
2021/12/04 13:18:09;;;;;;;2.00;0.90;;;;;;;5.39;100.00;99407.03;4996644;28;20026;-58
2021/12/04 13:20:35;;;;;;;0.90;0.75;;;;;;;5.41;100.00;99405.31;4996839;28;20030;-58
2021/12/04 13:23:08;;;;;;;0.35;0.35;;;;;;;5.43;100.00;99416.50;4996510;28;20460;-58
2021/12/04 13:25:34;;;;;;;0.20;0.20;;;;;;;5.44;100.00;99407.88;4988526;28;20474;-58
2021/12/04 13:30:24;;;;;;;1.08;0.80;;;;;;;5.45;100.00;99404.41;4997005;28;20208;-58
2021/12/04 13:32:51;;;;;;;1.55;1.10;;;;;;;5.47;100.00;99410.41;4996678;28;20381;-58
2021/12/04 13:35:21;;;;;;;7.82;1.50;;;;;;;5.48;100.00;99411.28;4995435;28;20026;-58
2021/12/04 13:37:54;;;;;;;0.30;0.30;;;;;;;5.51;100.00;99406.91;4996313;28;20472;-57
2021/12/04 13:40:20;;;;;;;2.30;1.17;;;;;;;5.51;100.00;99406.91;4996776;28;20385;-58
2021/12/04 13:42:47;;;;;;;6.07;1.10;;;;;;;5.53;100.00;99402.56;4996483;28;20029;-58
2021/12/04 13:45:17;;;;;;;3.15;0.90;;;;;;;5.53;100.00;99425.88;4995848;28;20168;-58
2021/12/04 13:47:43;;;;;;;0.88;0.47;;;;;;;5.53;100.00;99407.75;4996342;28;20053;-58
2021/12/04 13:50:44;;;;;;;1.55;0.52;;;;;;;5.55;100.00;99424.16;4995949;28;20044;-58
2021/12/04 13:53:34;;;;;;;0.45;0.30;;;;;;;5.59;100.00;99428.41;4995387;28;20054;-57
2021/12/04 13:56:06;;;;;;;1.17;0.22;;;;;;;5.60;100.00;99437.91;4996303;28;20355;-59
2021/12/04 13:58:32;;;;;;;1.60;0.60;;;;;;;5.62;100.00;99430.97;4996231;28;20030;-58
2021/12/04 14:01:03;;;;;;;0.95;0.30;;;;;;;5.65;100.00;99438.72;4995967;28;20030;-59
2021/12/04 14:03:31;;;;;;;0.75;0.50;;;;;;;5.66;100.00;99439.56;4995982;28;20024;-58
2021/12/04 14:05:57;;;;;;;1.42;0.73;;;;;;;5.65;100.00;99441.28;4995757;28;20112;-58
2021/12/04 14:08:23;;;;;;;1.17;0.65;;;;;;;5.72;100.00;99451.59;4996017;28;20030;-58
2021/12/04 14:10:50;;;;;;;3.03;0.50;;;;;;;5.71;100.00;99460.25;4995751;28;20033;-58
2021/12/04 14:13:20;;;;;;;12.07;0.88;;;;;;;5.74;100.00;99461.06;4995551;28;20030;-57
2021/12/04 14:15:47;;;;;;;2.92;1.23;;;;;;;5.82;100.00;99455.81;4990549;28;20105;-58
2021/12/04 14:18:16;;;;;;;2.72;0.73;;;;;;;5.83;100.00;99460.13;4995777;28;20026;-58